sensor_id;sensor_type;location;lat;lon;timestamp;pressure;altitude;pressure_sealevel;temperature;humidity
69460;BME280;57182;55.712;37.612;2022-08-19T00:02:49;100522.69;;;22.88;46.10
69460;BME280;57182;55.712;37.612;2022-08-19T00:06:09;100514.41;;;22.82;46.95
69460;BME280;57182;55.712;37.612;2022-08-19T00:14:18;100531.03;;;22.85;46.92
69460;BME280;57182;55.712;37.612;2022-08-19T00:22:33;100521.31;;;22.67;47.31
69460;BME280;57182;55.712;37.612;2022-08-19T00:26:02;100517.44;;;22.51;47.69
69460;BME280;57182;55.712;37.612;2022-08-19T00:33:39;100515.53;;;22.44;47.78
69460;BME280;57182;55.712;37.612;2022-08-19T00:41:17;100526.47;;;22.33;47.86
69460;BME280;57182;55.712;37.612;2022-08-19T00:49:45;100531.09;;;22.31;48.18
69460;BME280;57182;55.712;37.612;2022-08-19T00:53:31;100531.03;;;22.23;48.20
69460;BME280;57182;55.712;37.612;2022-08-19T00:57:45;100563.31;;;22.39;48.26
69460;BME280;57182;55.712;37.612;2022-08-19T01:01:27;100573.38;;;22.27;48.38
69460;BME280;57182;55.712;37.612;2022-08-19T01:10:23;100585.28;;;22.06;48.65
69460;BME280;57182;55.712;37.612;2022-08-19T01:13:43;100574.09;;;21.83;48.92
69460;BME280;57182;55.712;37.612;2022-08-19T01:17:17;100583.38;;;21.88;48.95
69460;BME280;57182;55.712;37.612;2022-08-19T01:25:18;100557.97;;;21.65;49.46
69460;BME280;57182;55.712;37.612;2022-08-19T01:28:53;100591.00;;;21.74;49.39
69460;BME280;57182;55.712;37.612;2022-08-19T01:32:28;100592.84;;;21.73;49.62
69460;BME280;57182;55.712;37.612;2022-08-19T02:20:49;100572.50;;;21.34;49.89
69460;BME280;57182;55.712;37.612;2022-08-19T03:44:10;100630.00;;;21.19;51.73
69460;BME280;57182;55.712;37.612;2022-08-19T03:47:49;100603.59;;;21.06;51.69
69460;BME280;57182;55.712;37.612;2022-08-19T05:58:24;100626.97;;;24.37;45.69
69460;BME280;57182;55.712;37.612;2022-08-19T06:05:07;100637.59;;;24.55;45.88
69460;BME280;57182;55.712;37.612;2022-08-19T06:07:41;100616.94;;;24.56;45.22
69460;BME280;57182;55.712;37.612;2022-08-19T06:10:22;100626.97;;;24.87;44.57
69460;BME280;57182;55.712;37.612;2022-08-19T06:12:55;100626.16;;;25.03;44.63
69460;BME280;57182;55.712;37.612;2022-08-19T06:15:27;100630.22;;;25.15;44.51
69460;BME280;57182;55.712;37.612;2022-08-19T06:17:57;100647.06;;;25.49;44.04
69460;BME280;57182;55.712;37.612;2022-08-19T06:20:27;100654.38;;;26.04;43.30
69460;BME280;57182;55.712;37.612;2022-08-19T06:23:22;100639.84;;;26.37;41.86
69460;BME280;57182;55.712;37.612;2022-08-19T06:26:21;100651.41;;;26.54;41.06
69460;BME280;57182;55.712;37.612;2022-08-19T06:28:56;100658.00;;;26.51;41.41
69460;BME280;57182;55.712;37.612;2022-08-19T06:31:27;100638.78;;;26.15;41.56
69460;BME280;57182;55.712;37.612;2022-08-19T06:33:55;100637.91;;;26.15;42.16
69460;BME280;57182;55.712;37.612;2022-08-19T06:36:31;100639.09;;;26.20;41.96
69460;BME280;57182;55.712;37.612;2022-08-19T06:39:20;100628.06;;;25.75;42.66
69460;BME280;57182;55.712;37.612;2022-08-19T06:41:53;100634.81;;;25.47;43.36
69460;BME280;57182;55.712;37.612;2022-08-19T06:44:33;100645.69;;;25.21;43.64
69460;BME280;57182;55.712;37.612;2022-08-19T06:47:23;100616.91;;;24.89;43.99
69460;BME280;57182;55.712;37.612;2022-08-19T06:50:00;100623.75;;;24.76;44.39
69460;BME280;57182;55.712;37.612;2022-08-19T06:52:41;100628.78;;;24.79;44.15
69460;BME280;57182;55.712;37.612;2022-08-19T06:55:15;100628.78;;;24.79;44.56
69460;BME280;57182;55.712;37.612;2022-08-19T06:57:44;100616.97;;;24.64;44.31
69460;BME280;57182;55.712;37.612;2022-08-19T07:00:15;100624.31;;;24.54;44.02
69460;BME280;57182;55.712;37.612;2022-08-19T07:02:48;100615.91;;;24.49;44.40
69460;BME280;57182;55.712;37.612;2022-08-19T07:05:27;100641.47;;;24.61;44.57
69460;BME280;57182;55.712;37.612;2022-08-19T07:07:55;100655.34;;;24.82;44.13
69460;BME280;57182;55.712;37.612;2022-08-19T07:10:30;100636.47;;;24.74;44.17
69460;BME280;57182;55.712;37.612;2022-08-19T07:13:09;100629.31;;;24.82;44.17
69460;BME280;57182;55.712;37.612;2022-08-19T07:15:50;100618.94;;;24.95;44.06
69460;BME280;57182;55.712;37.612;2022-08-19T07:18:31;100625.19;;;25.28;43.31
69460;BME280;57182;55.712;37.612;2022-08-19T07:21:10;100628.22;;;25.74;42.43
69460;BME280;57182;55.712;37.612;2022-08-19T07:23:45;100628.13;;;26.30;41.67
69460;BME280;57182;55.712;37.612;2022-08-19T07:26:25;100616.63;;;26.75;39.91
69460;BME280;57182;55.712;37.612;2022-08-19T07:28:59;100631.31;;;27.26;39.69
69460;BME280;57182;55.712;37.612;2022-08-19T07:31:29;100614.88;;;27.35;39.31
69460;BME280;57182;55.712;37.612;2022-08-19T07:34:08;100627.94;;;27.24;38.57
69460;BME280;57182;55.712;37.612;2022-08-19T07:36:44;100631.31;;;27.26;38.90
69460;BME280;57182;55.712;37.612;2022-08-19T07:39:18;100642.69;;;27.36;37.88
69460;BME280;57182;55.712;37.612;2022-08-19T07:41:50;100640.00;;;27.36;37.75
69460;BME280;57182;55.712;37.612;2022-08-19T07:44:26;100637.25;;;27.81;37.20
69460;BME280;57182;55.712;37.612;2022-08-19T07:47:05;100657.81;;;28.34;35.52
69460;BME280;57182;55.712;37.612;2022-08-19T07:49:54;100641.13;;;28.45;35.76
69460;BME280;57182;55.712;37.612;2022-08-19T07:52:28;100641.34;;;28.44;35.17
69460;BME280;57182;55.712;37.612;2022-08-19T07:54:56;100641.97;;;28.17;35.32
69460;BME280;57182;55.712;37.612;2022-08-19T07:57:53;100643.94;;;27.71;35.98
69460;BME280;57182;55.712;37.612;2022-08-19T08:00:23;100660.94;;;27.57;36.24
69460;BME280;57182;55.712;37.612;2022-08-19T08:02:57;100650.53;;;27.68;36.52
69460;BME280;57182;55.712;37.612;2022-08-19T08:05:34;100657.56;;;27.92;36.57
69460;BME280;57182;55.712;37.612;2022-08-19T08:08:21;100655.72;;;28.80;35.28
69460;BME280;57182;55.712;37.612;2022-08-19T08:11:18;100635.47;;;29.69;33.41
69460;BME280;57182;55.712;37.612;2022-08-19T08:14:09;100664.88;;;30.00;32.67
69460;BME280;57182;55.712;37.612;2022-08-19T08:16:57;100647.34;;;29.96;33.29
69460;BME280;57182;55.712;37.612;2022-08-19T08:19:28;100648.50;;;30.14;33.12
69460;BME280;57182;55.712;37.612;2022-08-19T08:21:57;100659.66;;;30.32;32.94
69460;BME280;57182;55.712;37.612;2022-08-19T08:24:30;100655.47;;;29.96;33.63
69460;BME280;57182;55.712;37.612;2022-08-19T08:27:00;100644.47;;;29.76;33.75
69460;BME280;57182;55.712;37.612;2022-08-19T08:29:30;100662.84;;;30.08;33.32
69460;BME280;57182;55.712;37.612;2022-08-19T08:32:13;100662.34;;;29.98;33.40
69460;BME280;57182;55.712;37.612;2022-08-19T08:34:49;100651.19;;;29.59;33.58
69460;BME280;57182;55.712;37.612;2022-08-19T08:37:18;100667.47;;;29.65;33.84
69460;BME280;57182;55.712;37.612;2022-08-19T08:39:49;100650.06;;;28.75;34.69
69460;BME280;57182;55.712;37.612;2022-08-19T08:42:26;100664.59;;;28.45;35.97
69460;BME280;57182;55.712;37.612;2022-08-19T08:45:22;100673.09;;;28.13;36.38
69460;BME280;57182;55.712;37.612;2022-08-19T08:47:52;100654.88;;;27.92;35.95
69460;BME280;57182;55.712;37.612;2022-08-19T08:50:33;100638.59;;;28.00;36.48
69460;BME280;57182;55.712;37.612;2022-08-19T08:53:08;100646.22;;;27.96;35.61
69460;BME280;57182;55.712;37.612;2022-08-19T08:55:40;100643.09;;;28.22;35.14
69460;BME280;57182;55.712;37.612;2022-08-19T08:58:17;100645.72;;;28.95;33.95
69460;BME280;57182;55.712;37.612;2022-08-19T09:00:55;100665.78;;;29.64;32.88
69460;BME280;57182;55.712;37.612;2022-08-19T09:03:29;100649.38;;;29.87;32.00
69460;BME280;57182;55.712;37.612;2022-08-19T09:06:05;100672.78;;;30.01;32.51
69460;BME280;57182;55.712;37.612;2022-08-19T09:11:56;100679.13;;;30.83;31.70
69460;BME280;57182;55.712;37.612;2022-08-19T09:17:21;100653.97;;;30.55;31.48
69460;BME280;57182;55.712;37.612;2022-08-19T09:20:19;100665.38;;;30.44;30.67
69460;BME280;57182;55.712;37.612;2022-08-19T09:22:57;100665.06;;;29.98;30.98
69460;BME280;57182;55.712;37.612;2022-08-19T09:25:29;100660.38;;;29.85;31.61
69460;BME280;57182;55.712;37.612;2022-08-19T09:28:05;100682.88;;;29.86;31.81
69460;BME280;57182;55.712;37.612;2022-08-19T09:30:53;100674.44;;;30.58;30.94
69460;BME280;57182;55.712;37.612;2022-08-19T09:33:24;100678.59;;;30.60;30.67
69460;BME280;57182;55.712;37.612;2022-08-19T09:36:05;100684.81;;;30.54;30.83
69460;BME280;57182;55.712;37.612;2022-08-19T09:38:36;100678.19;;;31.10;30.61
69460;BME280;57182;55.712;37.612;2022-08-19T09:41:18;100662.25;;;31.55;29.62
69460;BME280;57182;55.712;37.612;2022-08-19T09:43:52;100662.03;;;31.96;29.28
69460;BME280;57182;55.712;37.612;2022-08-19T09:46:22;100674.94;;;32.33;28.84
69460;BME280;57182;55.712;37.612;2022-08-19T09:48:53;100670.53;;;32.52;28.75
69460;BME280;57182;55.712;37.612;2022-08-19T09:51:24;100677.25;;;32.93;26.79
69460;BME280;57182;55.712;37.612;2022-08-19T09:53:58;100658.44;;;32.34;26.25
69460;BME280;57182;55.712;37.612;2022-08-19T09:56:33;100669.56;;;31.48;26.67
69460;BME280;57182;55.712;37.612;2022-08-19T09:59:03;100682.41;;;31.33;26.11
69460;BME280;57182;55.712;37.612;2022-08-19T10:01:31;100685.97;;;31.27;25.64
69460;BME280;57182;55.712;37.612;2022-08-19T10:04:01;100701.50;;;31.52;24.76
69460;BME280;57182;55.712;37.612;2022-08-19T10:06:46;100679.56;;;31.54;24.47
69460;BME280;57182;55.712;37.612;2022-08-19T10:09:19;100685.22;;;31.52;24.91
69460;BME280;57182;55.712;37.612;2022-08-19T10:11:59;100687.72;;;32.00;24.35
69460;BME280;57182;55.712;37.612;2022-08-19T10:14:30;100692.06;;;32.47;24.37
69460;BME280;57182;55.712;37.612;2022-08-19T10:16:57;100673.91;;;32.21;24.68
69460;BME280;57182;55.712;37.612;2022-08-19T10:19:43;100682.50;;;32.24;23.69
69460;BME280;57182;55.712;37.612;2022-08-19T10:22:22;100683.16;;;32.00;22.89
69460;BME280;57182;55.712;37.612;2022-08-19T10:24:52;100698.16;;;31.90;22.82
69460;BME280;57182;55.712;37.612;2022-08-19T10:27:21;100698.16;;;31.50;22.09
69460;BME280;57182;55.712;37.612;2022-08-19T10:29:49;100703.16;;;31.60;22.08
69460;BME280;57182;55.712;37.612;2022-08-19T10:32:16;100704.22;;;31.72;21.56
69460;BME280;57182;55.712;37.612;2022-08-19T10:34:45;100700.66;;;31.52;21.65
69460;BME280;57182;55.712;37.612;2022-08-19T10:37:16;100714.16;;;31.32;21.27
69460;BME280;57182;55.712;37.612;2022-08-19T10:39:55;100710.03;;;30.89;21.66
69460;BME280;57182;55.712;37.612;2022-08-19T10:42:22;100705.16;;;30.78;21.57
69460;BME280;57182;55.712;37.612;2022-08-19T10:44:50;100680.63;;;30.45;21.78
69460;BME280;57182;55.712;37.612;2022-08-19T10:47:18;100715.00;;;30.44;22.08
69460;BME280;57182;55.712;37.612;2022-08-19T10:49:53;100722.44;;;30.70;21.47
69460;BME280;57182;55.712;37.612;2022-08-19T10:52:42;100730.94;;;30.61;21.92
69460;BME280;57182;55.712;37.612;2022-08-19T10:55:20;100691.13;;;30.61;22.14
69460;BME280;57182;55.712;37.612;2022-08-19T10:58:11;100724.38;;;30.83;21.91
69460;BME280;57182;55.712;37.612;2022-08-19T11:00:39;100710.13;;;31.02;21.49
69460;BME280;57182;55.712;37.612;2022-08-19T11:03:09;100715.25;;;30.90;21.51
69460;BME280;57182;55.712;37.612;2022-08-19T11:05:36;100704.56;;;30.82;21.41
69460;BME280;57182;55.712;37.612;2022-08-19T11:08:07;100720.41;;;30.79;21.33
69460;BME280;57182;55.712;37.612;2022-08-19T11:10:52;100687.75;;;30.52;21.57
69460;BME280;57182;55.712;37.612;2022-08-19T11:13:24;100689.44;;;30.60;21.65
69460;BME280;57182;55.712;37.612;2022-08-19T11:16:05;100697.34;;;30.96;21.83
69460;BME280;57182;55.712;37.612;2022-08-19T11:18:36;100688.94;;;31.51;21.29
69460;BME280;57182;55.712;37.612;2022-08-19T11:21:19;100696.91;;;31.92;21.07
69460;BME280;57182;55.712;37.612;2022-08-19T11:23:52;100692.72;;;32.22;20.98
69460;BME280;57182;55.712;37.612;2022-08-19T11:26:23;100687.69;;;32.32;21.13
69460;BME280;57182;55.712;37.612;2022-08-19T11:28:50;100679.34;;;32.34;21.01
69460;BME280;57182;55.712;37.612;2022-08-19T11:31:24;100677.69;;;32.07;21.43
69460;BME280;57182;55.712;37.612;2022-08-19T11:33:59;100687.31;;;32.03;21.26
69460;BME280;57182;55.712;37.612;2022-08-19T11:36:31;100666.38;;;31.38;22.08
69460;BME280;57182;55.712;37.612;2022-08-19T11:39:00;100676.75;;;31.15;21.78
69460;BME280;57182;55.712;37.612;2022-08-19T11:41:27;100686.28;;;30.91;22.30
69460;BME280;57182;55.712;37.612;2022-08-19T11:43:55;100682.94;;;30.48;22.98
69460;BME280;57182;55.712;37.612;2022-08-19T11:46:24;100667.94;;;30.52;22.94
69460;BME280;57182;55.712;37.612;2022-08-19T11:48:52;100679.69;;;30.72;23.02
69460;BME280;57182;55.712;37.612;2022-08-19T11:51:21;100704.16;;;30.79;23.31
69460;BME280;57182;55.712;37.612;2022-08-19T11:53:49;100691.38;;;30.73;23.42
69460;BME280;57182;55.712;37.612;2022-08-19T11:56:18;100688.84;;;30.30;23.56
69460;BME280;57182;55.712;37.612;2022-08-19T11:58:46;100685.00;;;30.18;24.02
69460;BME280;57182;55.712;37.612;2022-08-19T12:01:17;100695.53;;;30.34;24.35
69460;BME280;57182;55.712;37.612;2022-08-19T12:03:47;100698.38;;;30.54;24.08
69460;BME280;57182;55.712;37.612;2022-08-19T12:06:20;100672.41;;;30.73;24.09
69460;BME280;57182;55.712;37.612;2022-08-19T12:08:51;100700.00;;;30.89;24.12
69460;BME280;57182;55.712;37.612;2022-08-19T12:11:19;100688.97;;;30.50;25.00
69460;BME280;57182;55.712;37.612;2022-08-19T12:13:50;100685.44;;;30.49;25.24
69460;BME280;57182;55.712;37.612;2022-08-19T12:16:20;100673.38;;;30.24;26.02
69460;BME280;57182;55.712;37.612;2022-08-19T12:18:48;100657.47;;;30.42;25.70
69460;BME280;57182;55.712;37.612;2022-08-19T12:21:27;100662.28;;;30.53;26.30
69460;BME280;57182;55.712;37.612;2022-08-19T12:24:00;100667.13;;;30.99;25.58
69460;BME280;57182;55.712;37.612;2022-08-19T12:26:29;100669.66;;;31.07;25.68
69460;BME280;57182;55.712;37.612;2022-08-19T12:29:02;100654.09;;;30.81;26.17
69460;BME280;57182;55.712;37.612;2022-08-19T12:31:30;100671.31;;;30.61;26.46
69460;BME280;57182;55.712;37.612;2022-08-19T12:33:58;100673.97;;;30.47;26.26
69460;BME280;57182;55.712;37.612;2022-08-19T12:36:25;100663.97;;;30.55;26.51
69460;BME280;57182;55.712;37.612;2022-08-19T12:38:53;100674.38;;;30.92;26.56
69460;BME280;57182;55.712;37.612;2022-08-19T12:41:20;100662.53;;;31.12;26.67
69460;BME280;57182;55.712;37.612;2022-08-19T12:43:49;100649.56;;;30.95;26.71
69460;BME280;57182;55.712;37.612;2022-08-19T12:46:19;100686.50;;;30.96;26.70
69460;BME280;57182;55.712;37.612;2022-08-19T12:48:50;100667.66;;;30.88;26.97
69460;BME280;57182;55.712;37.612;2022-08-19T12:51:22;100661.28;;;31.08;26.54
69460;BME280;57182;55.712;37.612;2022-08-19T12:53:57;100664.50;;;30.84;27.06
69460;BME280;57182;55.712;37.612;2022-08-19T12:56:25;100653.94;;;30.48;27.17
69460;BME280;57182;55.712;37.612;2022-08-19T12:58:55;100680.56;;;30.38;27.88
69460;BME280;57182;55.712;37.612;2022-08-19T13:01:23;100684.88;;;30.61;27.37
69460;BME280;57182;55.712;37.612;2022-08-19T13:03:53;100677.44;;;30.82;27.23
69460;BME280;57182;55.712;37.612;2022-08-19T13:06:31;100664.50;;;30.71;27.18
69460;BME280;57182;55.712;37.612;2022-08-19T13:08:59;100661.91;;;30.22;27.82
69460;BME280;57182;55.712;37.612;2022-08-19T13:11:26;100684.81;;;29.92;28.09
69460;BME280;57182;55.712;37.612;2022-08-19T13:14:06;100681.09;;;29.29;29.34
69460;BME280;57182;55.712;37.612;2022-08-19T13:16:36;100695.06;;;28.97;29.63
69460;BME280;57182;55.712;37.612;2022-08-19T13:19:07;100685.19;;;28.90;29.47
69460;BME280;57182;55.712;37.612;2022-08-19T13:21:34;100653.63;;;28.61;30.07
69460;BME280;57182;55.712;37.612;2022-08-19T13:24:20;100671.22;;;28.28;31.40
69460;BME280;57182;55.712;37.612;2022-08-19T13:27:00;100668.69;;;28.12;31.22
69460;BME280;57182;55.712;37.612;2022-08-19T13:29:27;100655.53;;;27.94;30.98
69460;BME280;57182;55.712;37.612;2022-08-19T13:32:14;100666.75;;;27.83;31.53
69460;BME280;57182;55.712;37.612;2022-08-19T13:35:07;100669.34;;;27.62;32.17
69460;BME280;57182;55.712;37.612;2022-08-19T13:37:37;100666.56;;;27.47;31.60
69460;BME280;57182;55.712;37.612;2022-08-19T13:40:17;100662.63;;;27.27;32.71
69460;BME280;57182;55.712;37.612;2022-08-19T13:42:48;100661.88;;;27.18;32.40
69460;BME280;57182;55.712;37.612;2022-08-19T13:45:17;100683.22;;;27.28;32.61
69460;BME280;57182;55.712;37.612;2022-08-19T13:47:53;100689.75;;;27.33;32.93
69460;BME280;57182;55.712;37.612;2022-08-19T13:50:28;100669.06;;;27.26;32.99
69460;BME280;57182;55.712;37.612;2022-08-19T13:53:02;100672.88;;;27.09;32.86
69460;BME280;57182;55.712;37.612;2022-08-19T13:55:59;100680.22;;;26.92;33.50
69460;BME280;57182;55.712;37.612;2022-08-19T13:58:31;100657.88;;;26.83;33.45
69460;BME280;57182;55.712;37.612;2022-08-19T14:00:59;100683.16;;;26.82;33.67
69460;BME280;57182;55.712;37.612;2022-08-19T14:03:29;100672.91;;;26.70;33.39
69460;BME280;57182;55.712;37.612;2022-08-19T14:05:59;100676.81;;;26.59;33.41
69460;BME280;57182;55.712;37.612;2022-08-19T14:08:29;100706.75;;;26.72;33.72
69460;BME280;57182;55.712;37.612;2022-08-19T14:10:59;100703.34;;;26.78;33.59
69460;BME280;57182;55.712;37.612;2022-08-19T14:13:36;100699.31;;;26.74;33.90
69460;BME280;57182;55.712;37.612;2022-08-19T14:16:09;100688.16;;;26.85;34.40
69460;BME280;57182;55.712;37.612;2022-08-19T14:18:39;100697.94;;;26.87;34.10
69460;BME280;57182;55.712;37.612;2022-08-19T14:21:14;100707.22;;;26.76;34.40
69460;BME280;57182;55.712;37.612;2022-08-19T14:23:51;100703.34;;;26.70;34.48
69460;BME280;57182;55.712;37.612;2022-08-19T14:26:21;100708.59;;;26.72;34.43
69460;BME280;57182;55.712;37.612;2022-08-19T14:28:52;100710.19;;;26.42;34.93
69460;BME280;57182;55.712;37.612;2022-08-19T14:31:29;100706.84;;;26.40;34.52
69460;BME280;57182;55.712;37.612;2022-08-19T14:33:58;100702.28;;;26.41;35.01
69460;BME280;57182;55.712;37.612;2022-08-19T14:36:33;100707.38;;;26.28;34.84
69460;BME280;57182;55.712;37.612;2022-08-19T14:39:05;100690.75;;;26.24;34.96
69460;BME280;57182;55.712;37.612;2022-08-19T14:41:33;100695.09;;;26.25;34.80
69460;BME280;57182;55.712;37.612;2022-08-19T14:44:00;100721.66;;;26.36;35.01
69460;BME280;57182;55.712;37.612;2022-08-19T14:46:30;100714.28;;;26.22;35.39
69460;BME280;57182;55.712;37.612;2022-08-19T14:48:58;100697.44;;;26.04;35.60
69460;BME280;57182;55.712;37.612;2022-08-19T14:51:26;100687.84;;;26.09;35.59
69460;BME280;57182;55.712;37.612;2022-08-19T14:53:55;100703.34;;;26.07;35.68
69460;BME280;57182;55.712;37.612;2022-08-19T14:56:32;100711.94;;;26.03;36.15
69460;BME280;57182;55.712;37.612;2022-08-19T14:59:04;100687.72;;;25.79;35.83
69460;BME280;57182;55.712;37.612;2022-08-19T15:01:37;100688.75;;;25.78;35.69
69460;BME280;57182;55.712;37.612;2022-08-19T15:04:06;100717.84;;;25.90;35.95
69460;BME280;57182;55.712;37.612;2022-08-19T15:06:38;100721.53;;;25.97;36.04
69460;BME280;57182;55.712;37.612;2022-08-19T15:09:11;100721.19;;;25.92;36.15
69460;BME280;57182;55.712;37.612;2022-08-19T15:11:42;100731.28;;;25.98;35.91
69460;BME280;57182;55.712;37.612;2022-08-19T15:14:12;100710.09;;;25.95;35.86
69460;BME280;57182;55.712;37.612;2022-08-19T15:16:43;100706.88;;;26.00;36.03
69460;BME280;57182;55.712;37.612;2022-08-19T15:19:10;100716.97;;;26.06;35.79
69460;BME280;57182;55.712;37.612;2022-08-19T15:21:38;100696.13;;;25.92;36.02
69460;BME280;57182;55.712;37.612;2022-08-19T15:24:10;100711.09;;;25.86;35.81
69460;BME280;57182;55.712;37.612;2022-08-19T15:26:39;100697.66;;;25.70;36.32
69460;BME280;57182;55.712;37.612;2022-08-19T15:29:15;100702.03;;;25.79;36.30
69460;BME280;57182;55.712;37.612;2022-08-19T15:31:43;100711.78;;;25.80;36.45
69460;BME280;57182;55.712;37.612;2022-08-19T15:34:12;100724.88;;;25.91;36.33
69460;BME280;57182;55.712;37.612;2022-08-19T15:36:42;100753.31;;;26.02;36.60
69460;BME280;57182;55.712;37.612;2022-08-19T15:39:12;100716.13;;;25.81;36.39
69460;BME280;57182;55.712;37.612;2022-08-19T15:41:50;100717.31;;;25.79;36.41
69460;BME280;57182;55.712;37.612;2022-08-19T15:44:18;100738.19;;;25.93;36.30
69460;BME280;57182;55.712;37.612;2022-08-19T15:46:48;100720.69;;;25.89;36.58
69460;BME280;57182;55.712;37.612;2022-08-19T15:49:16;100731.97;;;25.92;36.63
69460;BME280;57182;55.712;37.612;2022-08-19T15:51:47;100741.22;;;25.98;36.50
69460;BME280;57182;55.712;37.612;2022-08-19T15:54:18;100743.72;;;25.91;36.73
69460;BME280;57182;55.712;37.612;2022-08-19T15:56:50;100769.78;;;25.99;36.79
69460;BME280;57182;55.712;37.612;2022-08-19T15:59:40;100745.06;;;25.79;36.54
69460;BME280;57182;55.712;37.612;2022-08-19T16:02:32;100740.22;;;25.83;36.75
69460;BME280;57182;55.712;37.612;2022-08-19T16:05:24;100747.25;;;25.84;36.60
69460;BME280;57182;55.712;37.612;2022-08-19T16:08:12;100742.03;;;25.74;36.58
69460;BME280;57182;55.712;37.612;2022-08-19T16:10:41;100746.56;;;25.74;37.05
69460;BME280;57182;55.712;37.612;2022-08-19T16:13:12;100763.06;;;25.79;37.02
69460;BME280;57182;55.712;37.612;2022-08-19T16:15:40;100754.97;;;25.71;36.90
69460;BME280;57182;55.712;37.612;2022-08-19T16:18:09;100765.72;;;25.54;36.93
69460;BME280;57182;55.712;37.612;2022-08-19T16:20:44;100763.19;;;25.53;37.20
69460;BME280;57182;55.712;37.612;2022-08-19T16:23:17;100773.91;;;25.45;37.30
69460;BME280;57182;55.712;37.612;2022-08-19T16:25:46;100770.38;;;25.36;36.85
69460;BME280;57182;55.712;37.612;2022-08-19T16:28:21;100770.50;;;25.35;37.36
69460;BME280;57182;55.712;37.612;2022-08-19T16:30:54;100761.59;;;25.26;37.35
69460;BME280;57182;55.712;37.612;2022-08-19T16:33:31;100756.03;;;25.20;37.33
69460;BME280;57182;55.712;37.612;2022-08-19T16:36:02;100747.59;;;25.15;37.40
69460;BME280;57182;55.712;37.612;2022-08-19T16:38:34;100774.50;;;25.23;37.66
69460;BME280;57182;55.712;37.612;2022-08-19T16:41:07;100753.44;;;25.02;37.55
69460;BME280;57182;55.712;37.612;2022-08-19T16:43:51;100767.72;;;25.02;37.35
69460;BME280;57182;55.712;37.612;2022-08-19T16:46:21;100767.56;;;25.04;37.27
69460;BME280;57182;55.712;37.612;2022-08-19T16:48:55;100791.06;;;25.02;37.46
69460;BME280;57182;55.712;37.612;2022-08-19T16:51:26;100787.03;;;24.98;37.49
69460;BME280;57182;55.712;37.612;2022-08-19T16:53:56;100773.38;;;24.91;37.43
69460;BME280;57182;55.712;37.612;2022-08-19T16:56:31;100802.25;;;24.89;37.95
69460;BME280;57182;55.712;37.612;2022-08-19T16:59:04;100791.69;;;24.88;37.65
69460;BME280;57182;55.712;37.612;2022-08-19T17:01:31;100796.84;;;24.81;37.72
69460;BME280;57182;55.712;37.612;2022-08-19T17:04:03;100814.13;;;24.79;37.71
69460;BME280;57182;55.712;37.612;2022-08-19T17:06:30;100814.25;;;24.77;38.03
69460;BME280;57182;55.712;37.612;2022-08-19T17:09:06;100790.28;;;24.58;38.07
69460;BME280;57182;55.712;37.612;2022-08-19T17:11:34;100841.59;;;24.73;37.99
69460;BME280;57182;55.712;37.612;2022-08-19T17:30:49;100810.72;;;24.25;37.65
69460;BME280;57182;55.712;37.612;2022-08-19T17:34:23;100828.22;;;24.29;37.58
69460;BME280;57182;55.712;37.612;2022-08-19T17:38:27;100814.34;;;24.16;37.22
69460;BME280;57182;55.712;37.612;2022-08-19T17:49:57;100823.06;;;24.01;37.18
69460;BME280;57182;55.712;37.612;2022-08-19T17:53:55;100848.44;;;24.06;36.42
69460;BME280;57182;55.712;37.612;2022-08-19T17:56:47;100851.84;;;24.08;36.40
69460;BME280;57182;55.712;37.612;2022-08-19T17:59:21;100842.63;;;24.11;36.47
69460;BME280;57182;55.712;37.612;2022-08-19T18:02:13;100838.59;;;23.97;35.85
69460;BME280;57182;55.712;37.612;2022-08-19T18:04:58;100839.00;;;23.85;35.86
69460;BME280;57182;55.712;37.612;2022-08-19T18:07:51;100813.56;;;23.71;36.10
69460;BME280;57182;55.712;37.612;2022-08-19T18:10:46;100831.31;;;23.72;35.51
69460;BME280;57182;55.712;37.612;2022-08-19T18:14:38;100833.09;;;23.63;35.37
69460;BME280;57182;55.712;37.612;2022-08-19T18:18:04;100824.97;;;23.55;35.36
69460;BME280;57182;55.712;37.612;2022-08-19T18:21:25;100839.66;;;23.69;35.71
69460;BME280;57182;55.712;37.612;2022-08-19T18:36:40;100858.63;;;23.31;36.21
69460;BME280;57182;55.712;37.612;2022-08-19T18:39:12;100872.25;;;23.47;36.48
69460;BME280;57182;55.712;37.612;2022-08-19T18:41:56;100872.03;;;23.31;36.84
69460;BME280;57182;55.712;37.612;2022-08-19T18:44:42;100841.75;;;23.21;36.44
69460;BME280;57182;55.712;37.612;2022-08-19T18:47:32;100847.09;;;23.21;36.56
69460;BME280;57182;55.712;37.612;2022-08-19T19:03:15;100851.75;;;22.91;36.34
69460;BME280;57182;55.712;37.612;2022-08-19T19:05:52;100848.97;;;22.83;36.10
69460;BME280;57182;55.712;37.612;2022-08-19T19:08:32;100869.63;;;23.00;36.21
69460;BME280;57182;55.712;37.612;2022-08-19T19:10:59;100844.59;;;22.82;35.91
69460;BME280;57182;55.712;37.612;2022-08-19T19:13:34;100844.06;;;22.79;35.77
69460;BME280;57182;55.712;37.612;2022-08-19T19:16:16;100838.81;;;22.77;35.34
69460;BME280;57182;55.712;37.612;2022-08-19T19:18:51;100842.50;;;22.76;35.06
69460;BME280;57182;55.712;37.612;2022-08-19T19:21:25;100846.72;;;22.79;35.35
69460;BME280;57182;55.712;37.612;2022-08-19T19:24:03;100865.88;;;22.74;34.68
69460;BME280;57182;55.712;37.612;2022-08-19T19:26:45;100858.25;;;22.79;34.31
69460;BME280;57182;55.712;37.612;2022-08-19T19:29:26;100828.44;;;22.65;34.42
69460;BME280;57182;55.712;37.612;2022-08-19T19:32:02;100858.56;;;22.76;34.14